Time;durP1;ratioP1;P1;durP2;ratioP2;P2;SDS_P1;SDS_P2;PMS_P1;PMS_P2;Temp;Humidity;BMP_temperature;BMP_pressure;BME280_temperature;BME280_humidity;BME280_pressure;Samples;Min_cycle;Max_cycle;Signal;HPM_P1;HPM_P2
2023/04/03 00:02:59;;;;;;;12.70;10.43;;;;;0.60;102305.00;;;;10535784;28;20198;-77
2023/04/03 00:08:02;;;;;;;13.67;10.20;;;;;0.50;102306.00;;;;10502443;28;20257;-77
2023/04/03 00:13:05;;;;;;;13.07;9.80;;;;;0.50;102303.00;;;;10543965;28;20220;-77
2023/04/03 00:18:07;;;;;;;12.90;9.13;;;;;0.40;102310.00;;;;10493605;28;20519;-77
2023/04/03 00:23:10;;;;;;;10.20;8.67;;;;;0.40;102305.00;;;;10490724;28;20192;-77
2023/04/03 00:28:12;;;;;;;12.40;9.00;;;;;0.30;102312.00;;;;10492476;28;20192;-77
2023/04/03 00:33:14;;;;;;;22.60;14.17;;;;;0.40;102307.00;;;;10499965;27;20323;-77
2023/04/03 00:38:17;;;;;;;19.40;13.60;;;;;0.40;102322.00;;;;10499744;28;20197;-77
2023/04/03 00:43:24;;;;;;;14.87;11.23;;;;;0.50;102320.00;;;;10529653;27;20216;-77
2023/04/03 00:48:38;;;;;;;14.47;9.70;;;;;0.50;102320.00;;;;10550418;27;20692;-77
2023/04/03 00:53:45;;;;;;;14.83;10.37;;;;;0.50;102319.00;;;;10515768;28;20223;-77
2023/04/03 00:59:06;;;;;;;17.63;11.57;;;;;0.50;102320.00;;;;10503323;28;20197;-77
2023/04/03 01:04:30;;;;;;;16.87;11.17;;;;;0.40;102321.00;;;;10524985;28;20276;-77
2023/04/03 01:09:33;;;;;;;15.97;10.90;;;;;0.40;102319.00;;;;10532312;27;20206;-77
2023/04/03 01:14:35;;;;;;;14.10;10.97;;;;;0.40;102320.00;;;;10542927;27;20212;-77
2023/04/03 01:19:45;;;;;;;14.30;10.83;;;;;0.40;102323.00;;;;10517183;28;20474;-77
2023/04/03 01:24:47;;;;;;;20.20;10.63;;;;;0.40;102327.00;;;;10493481;28;20239;-77
2023/04/03 01:29:50;;;;;;;18.33;10.67;;;;;0.40;102335.00;;;;10498909;27;20207;-77
2023/04/03 01:34:52;;;;;;;15.17;10.53;;;;;0.40;102337.00;;;;10531558;28;20243;-77
2023/04/03 01:39:55;;;;;;;13.57;9.30;;;;;0.40;102342.00;;;;10515528;28;20239;-77
2023/04/03 01:44:57;;;;;;;12.33;9.67;;;;;0.30;102342.00;;;;10532165;27;20196;-77
2023/04/03 01:49:59;;;;;;;12.33;9.30;;;;;0.20;102348.00;;;;10539506;28;20227;-77
2023/04/03 01:55:04;;;;;;;16.53;11.43;;;;;0.20;102347.00;;;;10498251;28;20215;-77
2023/04/03 02:00:07;;;;;;;18.83;11.30;;;;;0.10;102338.00;;;;10521335;28;20200;-77
2023/04/03 02:05:13;;;;;;;23.23;12.50;;;;;0.20;102343.00;;;;10497981;27;20184;-76
2023/04/03 02:10:17;;;;;;;20.27;11.27;;;;;0.20;102349.00;;;;10549598;28;20227;-77
2023/04/03 02:15:19;;;;;;;17.10;10.53;;;;;0.10;102349.00;;;;10504404;28;20212;-77
2023/04/03 02:20:21;;;;;;;17.73;9.90;;;;;0.10;102343.00;;;;10549704;28;20188;-76
2023/04/03 02:25:24;;;;;;;16.00;9.60;;;;;0.00;102349.00;;;;10507181;28;20426;-77
2023/04/03 02:30:26;;;;;;;10.87;9.20;;;;;0.00;102355.00;;;;10521180;28;20207;-77
2023/04/03 02:35:29;;;;;;;14.63;9.93;;;;;-0.10;102362.00;;;;10545450;28;20291;-76
2023/04/03 02:40:33;;;;;;;11.87;10.10;;;;;-0.10;102365.00;;;;10512392;28;20267;-76
2023/04/03 02:45:35;;;;;;;14.93;9.97;;;;;-0.20;102367.00;;;;10510859;28;20185;-76
2023/04/03 02:50:38;;;;;;;14.23;9.17;;;;;-0.20;102368.00;;;;10526945;28;20185;-76
2023/04/03 02:55:40;;;;;;;11.57;8.93;;;;;-0.30;102376.00;;;;10500565;28;20247;-76
2023/04/03 03:00:42;;;;;;;13.70;9.10;;;;;-0.30;102368.00;;;;10528546;28;20224;-77
2023/04/03 03:05:44;;;;;;;14.77;10.67;;;;;-0.30;102371.00;;;;10499602;28;20208;-76
2023/04/03 03:10:47;;;;;;;13.17;10.30;;;;;-0.30;102369.00;;;;10554274;27;20200;-77
2023/04/03 03:15:49;;;;;;;13.77;10.17;;;;;-0.40;102376.00;;;;10554679;27;20698;-76
2023/04/03 03:20:53;;;;;;;11.47;9.30;;;;;-0.40;102378.00;;;;10512503;28;20197;-76
2023/04/03 03:25:57;;;;;;;16.63;10.27;;;;;-0.50;102373.00;;;;10479841;28;20200;-77
2023/04/03 03:31:00;;;;;;;13.97;9.37;;;;;-0.50;102388.00;;;;10489754;28;20238;-76
2023/04/03 03:36:03;;;;;;;16.50;10.00;;;;;-0.60;102383.00;;;;10535092;28;20857;-76
2023/04/03 03:41:06;;;;;;;13.63;9.97;;;;;-0.70;102385.00;;;;10553162;28;20233;-76
2023/04/03 03:46:09;;;;;;;13.33;9.33;;;;;-0.70;102398.00;;;;10518682;27;20293;-76
2023/04/03 03:51:11;;;;;;;12.97;9.57;;;;;-0.80;102392.00;;;;10533873;28;20216;-77
2023/04/03 03:56:14;;;;;;;14.30;10.07;;;;;-0.90;102397.00;;;;10535269;27;20824;-77
2023/04/03 04:01:17;;;;;;;14.10;9.90;;;;;-0.90;102407.00;;;;10550666;27;20199;-76
2023/04/03 04:06:23;;;;;;;15.83;9.43;;;;;-0.90;102408.00;;;;10502072;27;20200;-76
2023/04/03 04:11:27;;;;;;;14.23;8.83;;;;;-1.00;102409.00;;;;10517567;27;20677;-76
2023/04/03 04:16:30;;;;;;;12.60;8.67;;;;;-1.00;102414.00;;;;10525252;27;20219;-77
2023/04/03 04:21:37;;;;;;;16.50;10.67;;;;;-1.10;102411.00;;;;10517846;27;20184;-77
2023/04/03 04:26:40;;;;;;;14.00;9.83;;;;;-1.10;102418.00;;;;10517611;27;20203;-77
2023/04/03 04:31:45;;;;;;;14.67;9.17;;;;;-1.10;102412.00;;;;10516217;28;20279;-76
2023/04/03 04:36:47;;;;;;;15.43;9.67;;;;;-1.10;102415.00;;;;10549148;28;20212;-77
2023/04/03 04:41:50;;;;;;;15.63;10.13;;;;;-1.10;102410.00;;;;10515853;28;20243;-77
2023/04/03 04:46:53;;;;;;;14.73;9.80;;;;;-1.20;102410.00;;;;10509673;28;20199;-77
2023/04/03 04:51:55;;;;;;;15.93;10.33;;;;;-1.20;102416.00;;;;10516660;27;20345;-77
2023/04/03 04:57:03;;;;;;;16.17;10.93;;;;;-1.10;102417.00;;;;10516489;27;20219;-77
2023/04/03 05:02:05;;;;;;;17.37;11.23;;;;;-1.10;102422.00;;;;10514441;28;20204;-77
2023/04/03 05:07:08;;;;;;;16.07;12.43;;;;;-1.10;102413.00;;;;10516314;27;20188;-77
2023/04/03 05:12:12;;;;;;;16.63;12.67;;;;;-1.00;102408.00;;;;10513666;27;20775;-77
2023/04/03 05:17:20;;;;;;;17.73;12.03;;;;;-1.00;102418.00;;;;10536793;27;20216;-77
2023/04/03 05:22:26;;;;;;;20.87;13.93;;;;;-0.90;102421.00;;;;10514942;28;20426;-77
2023/04/03 05:27:33;;;;;;;16.40;12.47;;;;;-0.80;102411.00;;;;10491907;28;20451;-77
2023/04/03 05:32:36;;;;;;;20.47;12.43;;;;;-0.80;102423.00;;;;10515578;28;20200;-77
2023/04/03 05:37:48;;;;;;;19.73;12.63;;;;;-0.60;102427.00;;;;10514749;28;20224;-77
2023/04/03 05:42:53;;;;;;;19.57;13.77;;;;;-0.50;102431.00;;;;10527602;28;20675;-77
2023/04/03 05:47:57;;;;;;;21.20;13.03;;;;;-0.30;102428.00;;;;10530513;27;20208;-77
2023/04/03 05:53:03;;;;;;;24.77;13.27;;;;;-0.10;102434.00;;;;10510086;28;20534;-77
2023/04/03 05:58:07;;;;;;;23.33;12.43;;;;;0.20;102435.00;;;;10503661;28;20193;-77
2023/04/03 06:03:12;;;;;;;21.83;13.50;;;;;0.40;102434.00;;;;10505394;28;20216;-77
2023/04/03 06:08:15;;;;;;;20.73;15.47;;;;;0.70;102437.00;;;;10489945;28;20288;-77
2023/04/03 06:13:17;;;;;;;31.80;18.17;;;;;1.00;102434.00;;;;10510254;27;20226;-77
2023/04/03 06:18:19;;;;;;;33.57;21.33;;;;;1.30;102430.00;;;;10481702;28;20656;-77
2023/04/03 06:23:21;;;;;;;32.70;20.40;;;;;1.60;102442.00;;;;10531760;28;20195;-77
2023/04/03 06:28:24;;;;;;;21.83;16.90;;;;;1.90;102443.00;;;;10527138;28;20654;-77
2023/04/03 06:33:28;;;;;;;25.50;18.63;;;;;2.30;102458.00;;;;10514187;28;20211;-76
2023/04/03 06:38:31;;;;;;;20.70;15.73;;;;;2.90;102451.00;;;;10551006;28;20193;-76
2023/04/03 06:43:33;;;;;;;19.10;14.73;;;;;3.40;102454.00;;;;10556879;27;20227;-76
2023/04/03 06:48:35;;;;;;;16.50;12.97;;;;;3.90;102463.00;;;;10516838;28;20202;-76
2023/04/03 06:53:37;;;;;;;16.87;11.87;;;;;4.20;102471.00;;;;10556199;28;20216;-76
2023/04/03 06:58:40;;;;;;;18.33;12.57;;;;;4.60;102475.00;;;;10517375;28;20282;-76
2023/04/03 07:03:42;;;;;;;14.43;10.00;;;;;4.80;102463.00;;;;10556444;27;20223;-75
2023/04/03 07:08:45;;;;;;;12.53;9.60;;;;;5.00;102470.00;;;;10485077;28;20188;-75
2023/04/03 07:13:48;;;;;;;18.30;8.67;;;;;5.30;102469.00;;;;10531599;27;20213;-75
2023/04/03 07:18:50;;;;;;;9.90;7.90;;;;;5.60;102477.00;;;;10545644;27;20847;-75
2023/04/03 07:23:53;;;;;;;7.83;7.03;;;;;5.90;102485.00;;;;10536415;28;20286;-75
2023/04/03 07:28:55;;;;;;;8.77;7.07;;;;;6.10;102486.00;;;;10515373;27;20200;-75
2023/04/03 07:33:57;;;;;;;9.07;7.10;;;;;6.20;102487.00;;;;10526195;28;20216;-75
2023/04/03 07:38:59;;;;;;;10.27;7.10;;;;;6.30;102496.00;;;;10543358;27;20860;-75
2023/04/03 07:44:02;;;;;;;9.40;6.77;;;;;6.40;102497.00;;;;10531881;27;20489;-75
2023/04/03 07:49:04;;;;;;;12.30;7.67;;;;;6.50;102510.00;;;;10533866;28;20195;-73
2023/04/03 07:54:06;;;;;;;12.83;7.17;;;;;6.60;102503.00;;;;10526156;27;20208;-72
2023/04/03 07:59:10;;;;;;;10.03;6.90;;;;;6.90;102514.00;;;;10535973;27;20199;-72
2023/04/03 08:04:12;;;;;;;11.83;7.00;;;;;7.20;102513.00;;;;10551507;28;20249;-72
2023/04/03 08:09:15;;;;;;;7.60;5.50;;;;;7.50;102519.00;;;;10564169;28;20305;-72
2023/04/03 08:14:18;;;;;;;9.60;5.83;;;;;7.70;102520.00;;;;10533776;27;20307;-72
2023/04/03 08:19:20;;;;;;;7.93;5.93;;;;;8.20;102519.00;;;;10488328;28;20228;-72
2023/04/03 08:24:27;;;;;;;9.87;6.07;;;;;8.70;102522.00;;;;10533915;28;20295;-72
2023/04/03 08:29:29;;;;;;;7.17;5.33;;;;;9.00;102529.00;;;;10491396;27;20291;-72
2023/04/03 08:34:36;;;;;;;6.00;4.60;;;;;9.20;102525.00;;;;10508176;28;20216;-72
2023/04/03 08:39:38;;;;;;;5.83;4.60;;;;;9.60;102538.00;;;;10535853;28;20575;-72
2023/04/03 08:45:09;;;;;;;8.70;4.80;;;;;10.10;102534.00;;;;10542966;27;20740;-74
2023/04/03 08:50:26;;;;;;;5.80;4.53;;;;;10.40;102537.00;;;;10528485;28;20211;-74
2023/04/03 08:55:39;;;;;;;7.27;4.40;;;;;10.80;102533.00;;;;10559495;27;20238;-74
2023/04/03 09:00:53;;;;;;;4.10;3.53;;;;;11.10;102529.00;;;;10530203;27;20193;-74
2023/04/03 09:06:01;;;;;;;6.67;4.23;;;;;11.20;102531.00;;;;10474331;28;20208;-74
2023/04/03 09:11:12;;;;;;;6.10;3.87;;;;;11.50;102526.00;;;;10515100;28;20200;-75
2023/04/03 09:16:49;;;;;;;4.40;3.33;;;;;11.90;102525.00;;;;10545653;27;20227;-74
2023/04/03 09:21:52;;;;;;;6.20;3.37;;;;;12.10;102522.00;;;;10486772;28;20614;-74
2023/04/03 09:27:03;;;;;;;4.90;3.33;;;;;12.30;102533.00;;;;10500588;28;20313;-75
2023/04/03 09:32:32;;;;;;;5.13;2.97;;;;;12.30;102530.00;;;;10541198;27;20197;-74
2023/04/03 09:37:42;;;;;;;5.97;2.77;;;;;12.30;102528.00;;;;10496781;28;20315;-75
2023/04/03 09:42:44;;;;;;;4.97;3.00;;;;;12.60;102511.00;;;;10550716;27;20834;-75
2023/04/03 09:48:14;;;;;;;5.43;2.50;;;;;13.00;102513.00;;;;10564026;28;20226;-75
2023/04/03 09:53:36;;;;;;;8.90;2.90;;;;;13.40;102506.00;;;;10497420;28;20230;-72
2023/04/03 09:58:43;;;;;;;6.07;2.77;;;;;13.50;102501.00;;;;10506752;28;20946;-72
2023/04/03 10:04:12;;;;;;;4.80;2.33;;;;;13.50;102491.00;;;;10502798;28;20513;-72
2023/04/03 10:09:23;;;;;;;8.57;2.93;;;;;13.60;102487.00;;;;10523676;28;20200;-75
2023/04/03 10:14:26;;;;;;;4.22;2.55;;;;;13.80;102486.00;;;;10509372;27;20238;-72
2023/04/03 10:19:52;;;;;;;6.25;2.50;;;;;13.90;102489.00;;;;10510776;28;20200;-73
2023/04/03 10:30:59;;;;;;;4.60;2.15;;;;;14.70;102487.00;;;;10397017;28;20261;-74
2023/04/03 10:36:32;;;;;;;3.65;1.90;;;;;14.60;102482.00;;;;10393131;28;20242;-74
2023/04/03 10:41:33;;;;;;;6.82;2.30;;;;;14.60;102476.00;;;;10396767;28;20202;-74
2023/04/03 10:46:47;;;;;;;5.13;2.38;;;;;15.00;102464.00;;;;10338083;28;20195;-74
2023/04/03 10:52:04;;;;;;;7.50;2.75;;;;;15.10;102453.00;;;;10374787;28;20202;-74
2023/04/03 10:57:09;;;;;;;5.32;2.25;;;;;15.10;102452.00;;;;10378720;28;20268;-74
2023/04/03 11:02:28;;;;;;;4.35;2.13;;;;;14.80;102452.00;;;;10373004;28;20203;-71
2023/04/03 11:07:38;;;;;;;4.13;2.05;;;;;14.70;102440.00;;;;10396968;28;20264;-73
2023/04/03 11:12:49;;;;;;;5.50;1.77;;;;;14.70;102441.00;;;;10350356;28;20226;-73
2023/04/03 11:17:55;;;;;;;5.65;2.05;;;;;14.80;102425.00;;;;10364473;28;20223;-72
2023/04/03 11:23:19;;;;;;;3.85;1.63;;;;;15.10;102425.00;;;;10348728;28;20191;-73
2023/04/03 11:28:21;;;;;;;6.03;2.13;;;;;15.10;102421.00;;;;10365383;28;20195;-73
2023/04/03 11:34:00;;;;;;;3.47;1.90;;;;;15.40;102421.00;;;;10373159;28;20207;-73
2023/04/03 11:39:25;;;;;;;3.53;1.77;;;;;15.70;102411.00;;;;10388871;28;20203;-73
2023/04/03 11:44:39;;;;;;;4.45;2.10;;;;;15.50;102408.00;;;;10392376;28;20217;-73
2023/04/03 11:49:59;;;;;;;3.05;1.90;;;;;15.30;102390.00;;;;10369172;28;20207;-73
2023/04/03 11:55:01;;;;;;;7.00;2.03;;;;;15.50;102392.00;;;;10369474;28;20538;-73
2023/04/03 12:00:41;;;;;;;3.67;1.23;;;;;15.40;102375.00;;;;10386402;28;20198;-73
2023/04/03 12:05:43;;;;;;;2.97;1.50;;;;;15.10;102378.00;;;;10355398;28;20199;-73
2023/04/03 12:11:08;;;;;;;3.45;1.60;;;;;14.80;102381.00;;;;10371399;28;20223;-73
2023/04/03 12:16:24;;;;;;;3.17;1.80;;;;;14.80;102382.00;;;;10399082;28;20271;-73
2023/04/03 12:21:29;;;;;;;3.88;1.95;;;;;14.90;102361.00;;;;10385162;28;20657;-73
2023/04/03 12:26:56;;;;;;;3.20;1.33;;;;;15.00;102365.00;;;;10329475;28;20227;-72
2023/04/03 12:32:08;;;;;;;3.22;1.60;;;;;15.00;102363.00;;;;10365453;28;20195;-72
2023/04/03 12:37:24;;;;;;;3.25;1.80;;;;;15.40;102356.00;;;;10400712;28;20221;-73
2023/04/03 12:42:53;;;;;;;2.90;1.38;;;;;15.70;102363.00;;;;10365644;28;20205;-72
2023/04/03 12:47:56;;;;;;;2.08;1.50;;;;;15.80;102351.00;;;;10358703;28;20778;-73
2023/04/03 12:53:18;;;;;;;4.93;1.75;;;;;15.50;102346.00;;;;10348815;28;20248;-73
2023/04/03 12:58:28;;;;;;;1.92;1.20;;;;;15.80;102346.00;;;;10345304;28;20203;-73
2023/04/03 13:03:30;;;;;;;1.80;1.15;;;;;16.00;102336.00;;;;10332193;28;20859;-73
2023/04/03 13:08:34;;;;;;;2.47;1.65;;;;;16.20;102332.00;;;;10369999;28;20202;-73
2023/04/03 13:13:36;;;;;;;2.95;1.40;;;;;16.00;102336.00;;;;10385769;28;20203;-73
2023/04/03 13:18:38;;;;;;;3.50;1.50;;;;;16.20;102332.00;;;;10401071;28;20211;-73
2023/04/03 13:23:45;;;;;;;2.03;1.40;;;;;16.40;102331.00;;;;10368536;28;20230;-75
2023/04/03 13:28:47;;;;;;;4.60;1.70;;;;;19.80;102312.00;;;;10368601;28;20258;-76
2023/04/03 13:34:02;;;;;;;3.30;2.00;;;;;20.70;102308.00;;;;10368416;28;20201;-75
2023/04/03 13:39:12;;;;;;;2.75;1.40;;;;;20.70;102305.00;;;;10367541;28;20718;-76
2023/04/03 13:44:17;;;;;;;3.00;1.35;;;;;20.20;102295.00;;;;10398751;28;20738;-75
2023/04/03 13:49:39;;;;;;;3.10;1.30;;;;;21.70;102284.00;;;;10367598;28;20260;-75
2023/04/03 13:54:41;;;;;;;3.58;1.55;;;;;22.10;102277.00;;;;10364168;28;20238;-75
2023/04/03 13:59:43;;;;;;;3.75;2.10;;;;;23.10;102274.00;;;;10367892;28;20260;-76
2023/04/03 14:05:01;;;;;;;4.18;2.00;;;;;23.30;102258.00;;;;10376593;28;20828;-75
2023/04/03 14:10:03;;;;;;;3.80;1.55;;;;;23.60;102250.00;;;;10394246;28;20194;-75
2023/04/03 14:15:17;;;;;;;2.38;1.60;;;;;23.60;102249.00;;;;10380358;28;20217;-76
2023/04/03 14:20:23;;;;;;;3.00;1.60;;;;;23.30;102249.00;;;;10399545;28;20206;-75
2023/04/03 14:25:26;;;;;;;3.03;1.52;;;;;23.60;102239.00;;;;10355682;28;20227;-76
2023/04/03 14:30:31;;;;;;;3.45;1.70;;;;;24.20;102244.00;;;;10341588;28;20187;-76
2023/04/03 14:35:33;;;;;;;9.15;2.65;;;;;23.10;102240.00;;;;10385582;28;20210;-76
2023/04/03 14:40:35;;;;;;;2.60;1.60;;;;;22.00;102246.00;;;;10384121;28;20199;-76
2023/04/03 14:45:38;;;;;;;5.55;1.85;;;;;21.60;102243.00;;;;10399641;28;20206;-75
2023/04/03 14:50:40;;;;;;;3.33;1.73;;;;;22.50;102237.00;;;;10364612;28;20193;-75
2023/04/03 14:55:55;;;;;;;7.65;1.42;;;;;21.20;102221.00;;;;10377421;28;20227;-76
2023/04/03 15:00:57;;;;;;;3.15;1.50;;;;;23.30;102219.00;;;;10348686;28;20187;-76
2023/04/03 15:05:59;;;;;;;3.28;1.30;;;;;21.20;102231.00;;;;10401303;28;20695;-76
2023/04/03 15:11:01;;;;;;;2.08;1.23;;;;;21.20;102221.00;;;;10357897;28;20870;-76
2023/04/03 15:16:05;;;;;;;3.28;1.40;;;;;20.60;102244.00;;;;10412385;28;20313;-76
2023/04/03 15:21:07;;;;;;;3.10;1.63;;;;;17.80;102257.00;;;;10387173;28;20198;-76
2023/04/03 15:26:09;;;;;;;2.22;1.45;;;;;16.80;102236.00;;;;10406257;28;20546;-76
2023/04/03 15:31:11;;;;;;;3.60;1.42;;;;;15.00;102251.00;;;;10356772;28;20230;-76
2023/04/03 15:36:13;;;;;;;3.30;1.20;;;;;15.20;102245.00;;;;10348842;28;20338;-76
2023/04/03 15:41:34;;;;;;;2.00;1.20;;;;;15.50;102239.00;;;;10381542;28;20194;-76
2023/04/03 15:46:36;;;;;;;2.67;1.33;;;;;15.10;102240.00;;;;10374926;28;20831;-76
2023/04/03 15:51:38;;;;;;;3.67;1.53;;;;;14.10;102230.00;;;;10370924;28;20517;-76
2023/04/03 15:56:41;;;;;;;4.67;1.70;;;;;12.50;102238.00;;;;10387271;28;20207;-76
2023/04/03 16:01:43;;;;;;;4.43;1.60;;;;;12.10;102231.00;;;;10389763;28;20289;-76
2023/04/03 16:06:45;;;;;;;4.07;1.40;;;;;11.60;102236.00;;;;10386785;28;20210;-76
2023/04/03 16:11:47;;;;;;;3.60;1.50;;;;;11.10;102237.00;;;;10404581;28;20202;-76
2023/04/03 16:16:49;;;;;;;3.10;1.93;;;;;10.80;102221.00;;;;10345514;28;20215;-77
2023/04/03 16:21:53;;;;;;;2.37;1.43;;;;;10.60;102225.00;;;;10385327;28;20433;-76
2023/04/03 16:26:55;;;;;;;2.93;1.40;;;;;10.40;102232.00;;;;10353749;28;20215;-76
2023/04/03 16:31:58;;;;;;;4.43;2.40;;;;;10.30;102241.00;;;;10386870;28;20520;-76
2023/04/03 16:37:00;;;;;;;3.20;1.67;;;;;10.10;102239.00;;;;10355259;28;20716;-76
2023/04/03 16:42:02;;;;;;;5.13;1.63;;;;;10.00;102248.00;;;;10355642;28;20214;-76
2023/04/03 16:47:04;;;;;;;6.33;1.73;;;;;9.90;102244.00;;;;10371077;28;20211;-76
2023/04/03 16:52:06;;;;;;;4.53;2.33;;;;;9.80;102243.00;;;;10340844;28;20282;-76
2023/04/03 16:57:08;;;;;;;2.43;1.57;;;;;9.70;102241.00;;;;10369893;28;20740;-76
2023/04/03 17:02:10;;;;;;;5.07;1.67;;;;;9.70;102241.00;;;;10386017;28;20561;-75
2023/04/03 17:07:12;;;;;;;8.13;1.83;;;;;9.60;102251.00;;;;10355033;28;20211;-75
2023/04/03 17:12:14;;;;;;;6.30;2.17;;;;;9.40;102248.00;;;;10379652;28;20219;-75
2023/04/03 17:17:23;;;;;;;6.90;2.00;;;;;9.30;102259.00;;;;10382939;28;20238;-75
2023/04/03 17:22:25;;;;;;;3.57;1.53;;;;;9.10;102239.00;;;;10383152;28;20202;-75
2023/04/03 17:27:28;;;;;;;3.77;1.90;;;;;9.00;102254.00;;;;10366351;28;20187;-75
2023/04/03 17:32:29;;;;;;;3.10;1.67;;;;;8.80;102253.00;;;;10397635;28;20210;-75
2023/04/03 17:37:31;;;;;;;2.67;2.00;;;;;8.60;102261.00;;;;10382829;28;20219;-75
2023/04/03 17:42:33;;;;;;;3.50;1.93;;;;;8.50;102256.00;;;;10401754;28;20241;-75
2023/04/03 17:47:35;;;;;;;2.87;1.60;;;;;8.40;102267.00;;;;10342810;28;20264;-75
2023/04/03 17:52:37;;;;;;;3.60;1.87;;;;;8.20;102264.00;;;;10363540;28;20578;-75
2023/04/03 17:57:40;;;;;;;3.20;1.80;;;;;8.00;102270.00;;;;10389248;28;20228;-75
2023/04/03 18:02:42;;;;;;;3.03;1.50;;;;;7.90;102272.00;;;;10384749;28;20207;-75
2023/04/03 18:07:44;;;;;;;6.63;2.50;;;;;7.60;102271.00;;;;10367888;28;20194;-75
2023/04/03 18:12:47;;;;;;;2.90;1.87;;;;;7.40;102274.00;;;;10382709;28;20226;-75
2023/04/03 18:17:50;;;;;;;3.97;2.00;;;;;7.30;102285.00;;;;10351620;28;20300;-75
2023/04/03 18:22:52;;;;;;;3.97;2.10;;;;;7.10;102274.00;;;;10400050;28;20300;-75
2023/04/03 18:27:56;;;;;;;3.10;1.90;;;;;7.00;102275.00;;;;10369468;28;20226;-75
2023/04/03 18:32:58;;;;;;;5.07;1.60;;;;;6.90;102277.00;;;;10368955;28;20199;-75
2023/04/03 18:38:00;;;;;;;4.20;2.30;;;;;6.80;102282.00;;;;10398531;28;20242;-75
2023/04/03 18:43:02;;;;;;;5.93;1.90;;;;;6.70;102273.00;;;;10367018;28;20200;-75
2023/04/03 18:48:05;;;;;;;6.77;2.00;;;;;6.50;102275.00;;;;10346406;28;20642;-75
2023/04/03 18:53:07;;;;;;;5.23;2.10;;;;;6.40;102272.00;;;;10341210;28;20191;-75
2023/04/03 18:58:09;;;;;;;5.83;1.97;;;;;6.30;102278.00;;;;10397992;28;20215;-75
2023/04/03 19:03:12;;;;;;;2.83;1.80;;;;;6.30;102275.00;;;;10359961;28;20204;-75
2023/04/03 19:08:14;;;;;;;3.47;1.70;;;;;6.30;102279.00;;;;10392039;28;20558;-75
2023/04/03 19:13:16;;;;;;;2.17;1.60;;;;;6.20;102284.00;;;;10409742;28;20277;-75
2023/04/03 19:18:18;;;;;;;3.03;2.00;;;;;6.10;102293.00;;;;10399513;28;20655;-75
2023/04/03 19:23:21;;;;;;;5.20;2.30;;;;;6.00;102290.00;;;;10343758;28;20860;-75
2023/04/03 19:28:23;;;;;;;4.87;2.73;;;;;5.80;102297.00;;;;10356276;28;20222;-75
2023/04/03 19:33:26;;;;;;;5.73;2.33;;;;;5.60;102294.00;;;;10392050;28;20193;-75
2023/04/03 19:38:28;;;;;;;4.63;2.50;;;;;5.60;102295.00;;;;10407411;28;20229;-75
2023/04/03 19:43:30;;;;;;;7.00;2.90;;;;;5.50;102297.00;;;;10376211;28;20827;-74
2023/04/03 19:48:32;;;;;;;3.80;2.30;;;;;5.40;102298.00;;;;10373919;28;20203;-75
2023/04/03 19:53:34;;;;;;;4.00;2.47;;;;;5.40;102319.00;;;;10374451;28;20206;-75
2023/04/03 19:58:37;;;;;;;5.10;2.60;;;;;5.30;102316.00;;;;10338204;28;20214;-75
2023/04/03 20:03:40;;;;;;;5.60;2.10;;;;;5.10;102310.00;;;;10390329;28;20253;-74
2023/04/03 20:08:43;;;;;;;4.97;2.00;;;;;5.00;102318.00;;;;10385777;28;20202;-75
2023/04/03 20:13:49;;;;;;;4.87;2.53;;;;;4.90;102313.00;;;;10371664;28;20210;-75
2023/04/03 20:18:54;;;;;;;3.63;2.37;;;;;4.90;102318.00;;;;10343793;28;20218;-75
2023/04/03 20:23:57;;;;;;;2.27;1.67;;;;;4.80;102318.00;;;;10402730;28;20229;-75
2023/04/03 20:29:01;;;;;;;4.73;1.80;;;;;4.80;102317.00;;;;10374435;28;20428;-75
2023/04/03 20:34:03;;;;;;;4.23;2.23;;;;;4.80;102319.00;;;;10395299;28;20325;-76
2023/04/03 20:39:05;;;;;;;6.23;2.07;;;;;4.70;102322.00;;;;10403070;28;20624;-75
2023/04/03 20:44:07;;;;;;;4.90;2.03;;;;;4.60;102323.00;;;;10381531;28;20270;-75
2023/04/03 20:49:09;;;;;;;4.33;2.30;;;;;4.60;102322.00;;;;10346161;28;20842;-74
2023/04/03 20:54:11;;;;;;;2.63;1.50;;;;;4.50;102326.00;;;;10369922;28;20228;-75
2023/04/03 20:59:14;;;;;;;5.97;1.93;;;;;4.50;102327.00;;;;10383870;28;20227;-75
2023/04/03 21:04:46;;;;;;;3.17;1.67;;;;;4.30;102320.00;;;;10382841;28;20278;-76
2023/04/03 21:10:27;;;;;;;5.47;1.87;;;;;4.20;102327.00;;;;10357589;28;20207;-76
2023/04/03 21:15:54;;;;;;;5.97;2.67;;;;;4.20;102322.00;;;;10380186;28;20199;-75
2023/04/03 21:20:56;;;;;;;6.03;2.23;;;;;4.10;102321.00;;;;10363695;28;20230;-76
2023/04/03 21:25:58;;;;;;;4.83;2.00;;;;;4.00;102312.00;;;;10368739;28;20189;-76
2023/04/03 21:31:00;;;;;;;6.27;2.43;;;;;3.90;102324.00;;;;10345278;28;20203;-76
2023/04/03 21:36:03;;;;;;;3.90;2.00;;;;;3.90;102317.00;;;;10378404;28;20222;-76
2023/04/03 21:41:05;;;;;;;7.27;2.30;;;;;3.80;102322.00;;;;10387622;28;20205;-76
2023/04/03 21:46:07;;;;;;;6.67;1.83;;;;;3.80;102322.00;;;;10362816;28;20211;-76
2023/04/03 21:51:09;;;;;;;3.43;1.93;;;;;3.70;102326.00;;;;10366947;28;20712;-75
2023/04/03 21:56:12;;;;;;;7.63;4.43;;;;;3.60;102323.00;;;;10361214;28;20211;-75
2023/04/03 22:01:15;;;;;;;5.87;2.50;;;;;3.60;102332.00;;;;10355564;28;20222;-75
2023/04/03 22:06:17;;;;;;;5.67;2.60;;;;;3.50;102334.00;;;;10373455;28;20200;-75
2023/04/03 22:11:21;;;;;;;4.67;2.23;;;;;3.50;102316.00;;;;10352628;28;20536;-75
2023/04/03 22:16:23;;;;;;;4.40;2.10;;;;;3.40;102320.00;;;;10355169;28;20221;-75
2023/04/03 22:21:25;;;;;;;7.87;2.13;;;;;3.40;102317.00;;;;10356321;28;20202;-75
2023/04/03 22:26:28;;;;;;;6.03;2.23;;;;;3.30;102312.00;;;;10374608;28;20226;-74
2023/04/03 22:31:30;;;;;;;3.13;2.20;;;;;3.20;102301.00;;;;10334303;28;20210;-74
2023/04/03 22:36:32;;;;;;;3.87;2.03;;;;;3.20;102297.00;;;;10368502;28;20246;-75
2023/04/03 22:41:34;;;;;;;6.53;2.40;;;;;3.10;102286.00;;;;10381637;28;20286;-75
2023/04/03 22:46:36;;;;;;;3.87;2.27;;;;;3.00;102302.00;;;;10362206;28;20203;-75
2023/04/03 22:51:38;;;;;;;5.53;3.20;;;;;3.00;102285.00;;;;10364838;28;20187;-75
2023/04/03 22:56:40;;;;;;;5.03;2.40;;;;;2.90;102290.00;;;;10376379;28;20306;-75
2023/04/03 23:01:42;;;;;;;3.30;2.20;;;;;2.90;102290.00;;;;10382840;28;20316;-75
2023/04/03 23:06:44;;;;;;;5.53;2.60;;;;;2.80;102298.00;;;;10365315;28;20547;-75
2023/04/03 23:11:46;;;;;;;5.97;2.43;;;;;2.80;102304.00;;;;10369142;28;20577;-75
2023/04/03 23:16:47;;;;;;;2.60;1.87;;;;;2.70;102304.00;;;;10395802;28;20218;-75
2023/04/03 23:21:49;;;;;;;5.67;1.80;;;;;2.60;102307.00;;;;10375999;28;20199;-75
2023/04/03 23:26:51;;;;;;;3.47;2.20;;;;;2.50;102311.00;;;;10368712;28;20202;-75
2023/04/03 23:31:53;;;;;;;4.07;1.97;;;;;2.40;102320.00;;;;10389837;28;20274;-75
2023/04/03 23:36:55;;;;;;;3.40;2.00;;;;;2.30;102306.00;;;;10355768;28;20227;-75
2023/04/03 23:41:57;;;;;;;3.87;2.20;;;;;2.30;102309.00;;;;10368743;28;20203;-75
2023/04/03 23:46:59;;;;;;;4.43;2.23;;;;;2.20;102289.00;;;;10362869;28;20724;-74
2023/04/03 23:52:01;;;;;;;3.00;1.87;;;;;2.10;102299.00;;;;10389142;28;20199;-75
2023/04/03 23:57:03;;;;;;;3.77;1.83;;;;;2.10;102291.00;;;;10371715;28;20221;-75
